Time;durP1;ratioP1;P1;durP2;ratioP2;P2;SDS_P1;SDS_P2;PMS_P1;PMS_P2;Temp;Humidity;BMP_temperature;BMP_pressure;BME280_temperature;BME280_humidity;BME280_pressure;Samples;Min_cycle;Max_cycle;Signal;HPM_P1;HPM_P2
2023/11/18 00:00:53;;;;;;;2.17;1.95;;;1.00;99.90;;;;;;4968060;28;20065;-62
2023/11/18 00:03:19;;;;;;;3.42;2.63;;;0.90;99.90;;;;;;4962100;28;20122;-61
2023/11/18 00:05:45;;;;;;;4.72;2.25;;;0.80;99.90;;;;;;4968469;28;20055;-62
2023/11/18 00:08:13;;;;;;;3.08;2.35;;;0.90;99.90;;;;;;4957065;28;20043;-61
2023/11/18 00:10:39;;;;;;;2.40;2.17;;;0.80;99.90;;;;;;4966681;28;20088;-61
2023/11/18 00:13:06;;;;;;;1.98;1.77;;;0.90;99.90;;;;;;4967998;28;20050;-61
2023/11/18 00:15:35;;;;;;;3.15;2.70;;;0.90;99.90;;;;;;4967843;28;20470;-61
2023/11/18 00:18:01;;;;;;;2.42;2.22;;;0.80;99.90;;;;;;4963243;28;20047;-85
2023/11/18 00:20:29;;;;;;;2.40;2.20;;;0.80;99.90;;;;;;4959735;28;20046;-84
2023/11/18 00:22:55;;;;;;;4.75;3.17;;;0.90;99.90;;;;;;4968090;28;20089;-61
2023/11/18 00:25:21;;;;;;;6.20;3.88;;;0.90;99.90;;;;;;4967528;28;20051;-61
2023/11/18 00:27:47;;;;;;;4.63;3.47;;;0.80;99.90;;;;;;4967594;28;20043;-61
2023/11/18 00:30:15;;;;;;;6.03;3.40;;;0.90;99.90;;;;;;4948316;28;20461;-61
2023/11/18 00:32:41;;;;;;;3.65;3.05;;;1.00;99.90;;;;;;4950497;28;20135;-80
2023/11/18 00:35:10;;;;;;;5.93;3.40;;;1.00;99.90;;;;;;4953869;28;20126;-61
2023/11/18 00:37:36;;;;;;;3.55;3.25;;;1.00;99.90;;;;;;4963506;28;20065;-61
2023/11/18 00:40:03;;;;;;;6.18;3.28;;;1.00;99.90;;;;;;4960970;28;20054;-61
2023/11/18 00:42:29;;;;;;;4.85;3.00;;;1.00;99.90;;;;;;4963268;28;20050;-61
2023/11/18 00:44:58;;;;;;;3.83;3.35;;;1.00;99.90;;;;;;4960165;28;20066;-61
2023/11/18 00:47:24;;;;;;;4.50;3.67;;;1.00;99.90;;;;;;4967343;28;20086;-61
2023/11/18 00:49:52;;;;;;;3.60;3.25;;;1.00;99.90;;;;;;4967019;28;20039;-62
2023/11/18 00:52:21;;;;;;;6.30;3.90;;;1.10;99.90;;;;;;4967532;28;20054;-61
2023/11/18 00:54:48;;;;;;;6.88;4.03;;;1.00;99.90;;;;;;4965674;28;20433;-76
2023/11/18 00:57:14;;;;;;;3.83;3.38;;;1.00;99.90;;;;;;4952456;28;20126;-61
2023/11/18 00:59:44;;;;;;;5.15;3.50;;;1.10;99.90;;;;;;4960258;28;20058;-61
2023/11/18 01:02:10;;;;;;;6.07;3.57;;;1.10;99.90;;;;;;4963617;28;20042;-61
2023/11/18 01:04:37;;;;;;;4.25;3.78;;;1.10;99.90;;;;;;4967362;28;20346;-61
2023/11/18 01:07:03;;;;;;;4.30;3.88;;;1.10;99.90;;;;;;4957078;28;20105;-61
2023/11/18 01:09:36;;;;;;;12.63;4.00;;;1.20;99.90;;;;;;4966794;28;20031;-61
2023/11/18 01:12:04;;;;;;;9.93;3.65;;;1.20;99.90;;;;;;4958664;28;20517;-61
2023/11/18 01:14:30;;;;;;;16.95;3.53;;;1.10;99.90;;;;;;4964431;28;20050;-61
2023/11/18 01:16:56;;;;;;;11.70;3.15;;;1.00;99.90;;;;;;4956985;28;20054;-61
2023/11/18 01:19:23;;;;;;;13.13;2.78;;;1.10;99.90;;;;;;4961870;28;20121;-61
2023/11/18 01:21:53;;;;;;;5.65;3.72;;;1.10;99.90;;;;;;4967218;28;20043;-61
2023/11/18 01:24:19;;;;;;;3.85;2.72;;;1.10;99.90;;;;;;4966968;28;20057;-61
2023/11/18 01:26:46;;;;;;;26.83;3.90;;;1.10;99.90;;;;;;4963944;28;20047;-61
2023/11/18 01:29:13;;;;;;;12.18;3.58;;;1.00;99.90;;;;;;4952130;28;20067;-61
2023/11/18 01:31:43;;;;;;;20.73;3.28;;;1.00;99.90;;;;;;4961369;28;20046;-61
2023/11/18 01:34:09;;;;;;;;;;;1.10;99.90;;;;;;4967278;28;20061;-62
2023/11/18 01:36:36;;;;;;;10.32;3.30;;;1.00;99.90;;;;;;4967279;28;20384;-61
2023/11/18 01:39:02;;;;;;;21.70;3.38;;;1.10;99.90;;;;;;4957516;28;20125;-81
2023/11/18 01:41:32;;;;;;;18.92;3.05;;;1.10;99.90;;;;;;4966015;28;20062;-61
2023/11/18 01:43:59;;;;;;;18.95;2.72;;;1.10;99.90;;;;;;4967253;28;20051;-61
2023/11/18 01:46:26;;;;;;;10.20;2.72;;;1.10;99.90;;;;;;4966139;28;20043;-61
2023/11/18 01:48:52;;;;;;;3.65;2.88;;;1.10;99.90;;;;;;4960601;28;20102;-61
2023/11/18 01:51:19;;;;;;;6.05;2.88;;;1.00;99.90;;;;;;4966640;28;20391;-61
2023/11/18 01:53:48;;;;;;;10.00;2.78;;;1.00;99.90;;;;;;4953708;28;20476;-61
2023/11/18 01:56:14;;;;;;;8.00;2.95;;;1.00;99.90;;;;;;4966652;28;20102;-61
2023/11/18 01:58:41;;;;;;;4.20;2.53;;;1.00;99.90;;;;;;4962636;28;20047;-61
2023/11/18 02:01:08;;;;;;;13.40;2.90;;;0.90;99.90;;;;;;4963751;28;20440;-61
2023/11/18 02:03:35;;;;;;;20.23;2.95;;;1.00;99.90;;;;;;4960441;28;20106;-62
2023/11/18 02:06:04;;;;;;;11.13;3.25;;;1.10;99.90;;;;;;4962471;28;20043;-61
2023/11/18 02:08:34;;;;;;;12.98;3.22;;;1.00;99.90;;;;;;4952128;28;20049;-61
2023/11/18 02:11:12;;;;;;;5.28;3.28;;;1.00;99.90;;;;;;4963205;28;20412;-64
2023/11/18 02:13:42;;;;;;;8.40;2.80;;;0.90;99.90;;;;;;4958660;28;20452;-61
2023/11/18 02:16:09;;;;;;;;;;;0.90;99.90;;;;;;4964658;28;20046;-61
2023/11/18 02:18:39;;;;;;;9.63;2.88;;;0.90;99.90;;;;;;4957270;28;19992;-61
2023/11/18 02:21:10;;;;;;;8.52;2.70;;;0.90;99.90;;;;;;4966222;28;20457;-61
2023/11/18 02:23:37;;;;;;;11.68;3.10;;;0.90;99.90;;;;;;4966830;28;20058;-61
2023/11/18 02:26:05;;;;;;;8.30;3.40;;;0.80;99.90;;;;;;4950769;28;20162;-61
2023/11/18 02:28:33;;;;;;;8.15;3.10;;;0.90;99.90;;;;;;4955975;28;20046;-61
2023/11/18 02:31:10;;;;;;;4.93;2.80;;;0.90;99.90;;;;;;4968361;28;20137;-61
2023/11/18 02:33:52;;;;;;;12.25;3.08;;;0.80;99.90;;;;;;4969017;28;20053;-61
2023/11/18 02:36:36;;;;;;;2.90;2.65;;;0.90;99.90;;;;;;4969963;28;20588;-61
2023/11/18 02:39:15;;;;;;;12.25;2.65;;;0.80;99.90;;;;;;4964638;28;20501;-61
2023/11/18 02:41:46;;;;;;;24.13;2.60;;;0.80;99.90;;;;;;4969239;28;20504;-77
2023/11/18 02:44:17;;;;;;;6.05;2.75;;;0.80;99.90;;;;;;4970069;28;20444;-61
2023/11/18 02:46:44;;;;;;;7.38;3.00;;;0.90;99.90;;;;;;4959001;28;20553;-80
2023/11/18 02:49:11;;;;;;;6.65;2.88;;;1.00;99.90;;;;;;4970048;28;20125;-61
2023/11/18 02:51:39;;;;;;;6.65;2.70;;;0.90;99.90;;;;;;4965446;28;20070;-61
2023/11/18 02:54:12;;;;;;;6.07;2.90;;;0.80;99.90;;;;;;4970295;28;20132;-82
2023/11/18 02:56:38;;;;;;;11.35;2.85;;;0.90;99.90;;;;;;4959762;28;20560;-61
2023/11/18 02:59:07;;;;;;;9.88;2.72;;;0.90;99.90;;;;;;4969230;28;20057;-61
2023/11/18 03:01:34;;;;;;;14.65;2.92;;;0.90;99.90;;;;;;4962638;28;20510;-61
2023/11/18 03:04:02;;;;;;;5.95;2.80;;;1.00;99.90;;;;;;4968985;28;20135;-71
2023/11/18 03:06:28;;;;;;;10.82;3.03;;;0.90;99.90;;;;;;4945779;29;20581;-80
2023/11/18 03:08:55;;;;;;;6.38;2.78;;;0.90;99.90;;;;;;4967844;28;20051;-61
2023/11/18 03:11:22;;;;;;;10.23;2.95;;;0.90;99.90;;;;;;4969762;28;20105;-85
2023/11/18 03:13:48;;;;;;;9.73;2.92;;;0.90;99.90;;;;;;4969450;28;20900;-85
2023/11/18 03:16:15;;;;;;;9.50;3.03;;;0.80;99.90;;;;;;4967691;28;20528;-61
2023/11/18 03:18:42;;;;;;;10.23;3.03;;;0.90;99.90;;;;;;4959832;28;20055;-60
2023/11/18 03:21:15;;;;;;;11.93;2.88;;;0.90;99.90;;;;;;4968587;28;20051;-79
2023/11/18 03:23:41;;;;;;;11.40;2.63;;;0.80;99.90;;;;;;4968860;28;20572;-61
2023/11/18 03:26:10;;;;;;;5.53;2.88;;;0.80;99.90;;;;;;4968723;28;20097;-85
2023/11/18 03:28:37;;;;;;;10.85;3.20;;;0.80;99.90;;;;;;4961166;28;20038;-61
2023/11/18 03:31:05;;;;;;;3.28;2.55;;;0.80;99.90;;;;;;4966920;28;20059;-61
2023/11/18 03:33:32;;;;;;;8.85;2.63;;;0.80;99.90;;;;;;4968473;28;20516;-62
2023/11/18 03:35:58;;;;;;;11.20;3.33;;;0.80;99.90;;;;;;4969016;28;20051;-61
2023/11/18 03:38:25;;;;;;;15.30;2.88;;;0.80;99.90;;;;;;4961531;28;20070;-66
2023/11/18 03:40:52;;;;;;;11.75;3.17;;;0.80;99.90;;;;;;4968242;28;20125;-61
2023/11/18 03:43:19;;;;;;;7.03;3.00;;;0.80;99.90;;;;;;4968175;28;20412;-61
2023/11/18 03:45:46;;;;;;;3.13;2.90;;;0.80;99.90;;;;;;4968976;28;20097;-61
2023/11/18 03:48:15;;;;;;;7.78;3.20;;;0.70;99.90;;;;;;4963725;28;20039;-83
2023/11/18 03:50:44;;;;;;;8.20;3.40;;;0.70;99.90;;;;;;4968240;28;20050;-61
2023/11/18 03:53:11;;;;;;;4.63;3.45;;;0.80;99.90;;;;;;4968691;28;20296;-61
2023/11/18 03:55:38;;;;;;;13.40;3.10;;;0.80;99.90;;;;;;4967731;28;20511;-61
2023/11/18 03:58:04;;;;;;;8.98;3.65;;;0.80;99.90;;;;;;4966007;28;20035;-61
2023/11/18 04:00:31;;;;;;;9.30;3.22;;;0.80;99.90;;;;;;4967268;28;20125;-85
2023/11/18 04:02:58;;;;;;;20.15;4.13;;;0.80;99.90;;;;;;4962385;28;20466;-61
2023/11/18 04:05:24;;;;;;;17.52;4.03;;;0.80;99.90;;;;;;4967957;28;20046;-85
2023/11/18 04:07:51;;;;;;;8.02;3.55;;;0.90;99.90;;;;;;4968191;28;20092;-61
2023/11/18 04:10:19;;;;;;;29.17;4.07;;;0.80;99.90;;;;;;4966928;28;20054;-61
2023/11/18 04:12:47;;;;;;;7.85;3.53;;;0.90;99.90;;;;;;4967628;28;20054;-79
2023/11/18 04:15:15;;;;;;;11.52;3.72;;;0.90;99.90;;;;;;4968314;28;20054;-61
2023/11/18 04:17:43;;;;;;;28.65;3.70;;;1.00;99.90;;;;;;4967400;28;20054;-61
2023/11/18 04:20:11;;;;;;;14.18;3.05;;;1.00;99.90;;;;;;4964874;28;20520;-61
2023/11/18 04:22:41;;;;;;;12.70;4.00;;;1.00;99.90;;;;;;4967248;28;20096;-86
2023/11/18 04:25:10;;;;;;;16.52;3.65;;;1.10;99.90;;;;;;4968071;28;20042;-80
2023/11/18 04:27:40;;;;;;;10.70;3.95;;;1.10;99.90;;;;;;4950302;28;20093;-82
2023/11/18 04:30:08;;;;;;;18.98;3.65;;;1.00;99.90;;;;;;4957506;28;20059;-61
2023/11/18 04:32:35;;;;;;;13.70;3.95;;;1.10;99.90;;;;;;4961582;28;20062;-61
2023/11/18 04:35:06;;;;;;;35.90;4.32;;;1.10;99.90;;;;;;4967305;28;20058;-61
2023/11/18 04:37:36;;;;;;;12.52;3.67;;;1.10;99.90;;;;;;4968571;28;20366;-61
2023/11/18 04:40:03;;;;;;;11.45;4.38;;;1.10;99.90;;;;;;4965932;28;20121;-79
2023/11/18 04:42:30;;;;;;;21.67;4.65;;;1.10;99.90;;;;;;4959419;28;20046;-61
2023/11/18 04:44:57;;;;;;;14.32;4.47;;;1.10;99.90;;;;;;4967446;28;20065;-83
2023/11/18 04:47:25;;;;;;;26.48;4.43;;;1.20;99.90;;;;;;4949908;28;20050;-61
2023/11/18 04:49:52;;;;;;;16.98;4.07;;;1.20;99.90;;;;;;4967273;28;20078;-61
2023/11/18 04:52:18;;;;;;;21.70;4.60;;;1.20;99.90;;;;;;4959479;28;20077;-84
2023/11/18 04:54:47;;;;;;;16.05;4.47;;;1.20;99.90;;;;;;4967482;28;20065;-61
2023/11/18 04:57:14;;;;;;;20.73;4.88;;;1.20;99.90;;;;;;4967287;28;20420;-61
2023/11/18 04:59:43;;;;;;;27.10;4.78;;;1.20;99.90;;;;;;4967161;28;20042;-62
2023/11/18 05:02:10;;;;;;;19.98;4.55;;;1.20;99.90;;;;;;4960219;28;20050;-61
2023/11/18 05:04:36;;;;;;;17.70;4.88;;;1.20;99.90;;;;;;4967155;28;20043;-83
2023/11/18 05:07:04;;;;;;;14.38;4.72;;;1.20;99.90;;;;;;4967223;28;20093;-61
2023/11/18 05:09:31;;;;;;;22.33;5.25;;;1.30;99.90;;;;;;4965914;28;20070;-85
2023/11/18 05:11:58;;;;;;;10.05;4.63;;;1.30;99.90;;;;;;4967609;28;20912;-61
2023/11/18 05:14:26;;;;;;;13.50;4.82;;;1.30;99.90;;;;;;4966864;28;20500;-61
2023/11/18 05:16:52;;;;;;;19.05;5.30;;;1.30;99.90;;;;;;4967155;28;20086;-61
2023/11/18 05:19:18;;;;;;;13.05;5.00;;;1.30;99.90;;;;;;4964741;28;20134;-61
2023/11/18 05:21:49;;;;;;;19.05;5.40;;;1.30;99.90;;;;;;4955304;28;20050;-61
2023/11/18 05:24:16;;;;;;;16.30;4.93;;;1.40;99.90;;;;;;4956499;28;20102;-64
2023/11/18 05:26:42;;;;;;;17.35;4.82;;;1.40;99.90;;;;;;4966288;28;20043;-61
2023/11/18 05:29:09;;;;;;;33.38;5.20;;;1.40;99.90;;;;;;4967375;28;20073;-61
2023/11/18 05:31:37;;;;;;;15.27;5.45;;;1.30;99.90;;;;;;4953086;28;20081;-62
2023/11/18 05:34:03;;;;;;;23.35;5.32;;;1.40;99.90;;;;;;4941809;28;20039;-62
2023/11/18 05:36:36;;;;;;;15.57;5.30;;;1.40;99.90;;;;;;4966786;28;20101;-79
2023/11/18 05:39:04;;;;;;;31.55;6.07;;;1.40;99.90;;;;;;4967020;28;20065;-62
2023/11/18 05:41:32;;;;;;;15.65;4.90;;;1.40;99.90;;;;;;4957786;28;20049;-61
2023/11/18 05:43:58;;;;;;;15.40;5.35;;;1.40;99.90;;;;;;4966334;28;20101;-67
2023/11/18 05:46:32;;;;;;;32.92;6.10;;;1.50;99.90;;;;;;4967250;28;20057;-62
2023/11/18 05:49:05;;;;;;;10.73;5.25;;;1.40;99.90;;;;;;4966522;28;20105;-86
2023/11/18 05:51:32;;;;;;;17.75;5.28;;;1.50;99.90;;;;;;4961035;28;20046;-62
2023/11/18 05:53:58;;;;;;;26.90;6.13;;;1.50;99.90;;;;;;4966724;28;20054;-62
2023/11/18 05:56:25;;;;;;;34.90;6.43;;;1.50;99.90;;;;;;4966526;28;20050;-81
2023/11/18 05:58:55;;;;;;;14.02;5.97;;;1.50;99.90;;;;;;4960800;28;20087;-61
2023/11/18 06:01:22;;;;;;;17.10;6.35;;;1.50;99.90;;;;;;4953504;28;20453;-69
2023/11/18 06:03:48;;;;;;;14.18;5.25;;;1.60;99.90;;;;;;4967866;28;20057;-61
2023/11/18 06:06:16;;;;;;;17.13;5.65;;;1.60;99.90;;;;;;4963248;28;20051;-69
2023/11/18 06:08:43;;;;;;;9.73;5.43;;;1.60;99.90;;;;;;4970902;28;20126;-79
2023/11/18 06:11:12;;;;;;;26.60;7.15;;;1.60;99.90;;;;;;4970453;28;20054;-61
2023/11/18 06:13:47;;;;;;;14.77;5.90;;;1.70;99.90;;;;;;4955215;28;20047;-61
2023/11/18 06:16:15;;;;;;;14.73;6.28;;;1.60;99.90;;;;;;4969788;28;20444;-61
2023/11/18 06:18:46;;;;;;;16.17;6.18;;;1.70;99.90;;;;;;4970193;28;20054;-61
2023/11/18 06:21:18;;;;;;;29.98;7.03;;;1.80;99.90;;;;;;4970763;28;20078;-61
2023/11/18 06:23:48;;;;;;;21.80;6.72;;;1.80;99.90;;;;;;4966073;28;20517;-61
2023/11/18 06:26:15;;;;;;;23.25;7.50;;;1.80;99.90;;;;;;4970313;28;20049;-61
2023/11/18 06:28:43;;;;;;;30.98;7.78;;;1.90;99.90;;;;;;4958060;28;20078;-61
2023/11/18 06:31:11;;;;;;;24.35;6.90;;;1.90;99.90;;;;;;4950549;28;20051;-63
2023/11/18 06:33:44;;;;;;;19.92;7.85;;;2.00;99.90;;;;;;4948801;28;20043;-61
2023/11/18 06:36:13;;;;;;;25.08;7.22;;;2.00;99.90;;;;;;4964856;28;20051;-61
2023/11/18 06:38:41;;;;;;;23.15;7.68;;;2.00;99.90;;;;;;4954679;28;20464;-61
2023/11/18 06:41:15;;;;;;;38.75;8.50;;;2.00;99.90;;;;;;4951899;28;20050;-62
2023/11/18 06:46:22;;;;;;;12.88;7.82;;;2.10;99.90;;;;;;4966464;28;20051;-61
2023/11/18 06:48:49;;;;;;;26.42;8.52;;;2.10;99.90;;;;;;4969249;28;20082;-61
2023/11/18 06:51:16;;;;;;;33.00;8.73;;;2.00;99.90;;;;;;4959812;28;20055;-86
2023/11/18 06:53:44;;;;;;;23.13;9.02;;;2.20;99.90;;;;;;4969238;28;20046;-62
2023/11/18 06:56:10;;;;;;;27.92;8.35;;;2.30;99.90;;;;;;4969620;28;20165;-63
2023/11/18 06:58:39;;;;;;;23.20;8.68;;;2.30;99.90;;;;;;4964714;28;20035;-62
2023/11/18 07:01:06;;;;;;;32.67;10.32;;;2.30;99.90;;;;;;4956846;28;20484;-62
2023/11/18 07:03:33;;;;;;;29.27;9.30;;;2.30;99.90;;;;;;4966468;28;20046;-62
2023/11/18 07:05:59;;;;;;;23.50;10.98;;;2.40;99.90;;;;;;4958386;28;20070;-66
2023/11/18 07:08:25;;;;;;;25.35;10.25;;;2.50;99.90;;;;;;4960786;28;20051;-62
2023/11/18 07:10:52;;;;;;;21.10;9.70;;;2.50;99.90;;;;;;4961277;28;20043;-62
2023/11/18 07:13:18;;;;;;;26.17;11.52;;;2.50;99.90;;;;;;4958901;28;20537;-81
2023/11/18 07:15:45;;;;;;;38.30;13.68;;;2.50;99.90;;;;;;4948527;28;20074;-86
2023/11/18 07:18:12;;;;;;;31.60;12.65;;;2.60;99.90;;;;;;4958934;28;20578;-85
2023/11/18 07:20:38;;;;;;;27.35;11.75;;;2.70;99.90;;;;;;4969432;28;20050;-61
2023/11/18 07:23:05;;;;;;;33.22;11.95;;;2.70;99.90;;;;;;4968476;28;20054;-62
2023/11/18 07:25:31;;;;;;;35.78;13.70;;;2.70;99.90;;;;;;4969397;28;20485;-86
2023/11/18 07:27:59;;;;;;;37.78;13.35;;;2.80;99.90;;;;;;4953710;28;20452;-61
2023/11/18 07:30:25;;;;;;;33.83;13.45;;;2.70;99.90;;;;;;4966194;28;20090;-84
2023/11/18 07:32:52;;;;;;;25.92;11.82;;;2.80;99.90;;;;;;4949227;29;20039;-61
2023/11/18 07:35:18;;;;;;;43.90;13.88;;;2.80;99.90;;;;;;4949161;29;20055;-85
2023/11/18 07:37:45;;;;;;;34.08;12.52;;;2.90;99.90;;;;;;4948822;29;20047;-61
2023/11/18 07:40:12;;;;;;;30.25;11.93;;;2.90;99.90;;;;;;4948481;29;20047;-61
2023/11/18 07:42:38;;;;;;;46.63;13.15;;;2.80;99.90;;;;;;4949310;29;20126;-61
2023/11/18 07:45:17;;;;;;;31.55;11.40;;;3.00;99.90;;;;;;4948349;29;20035;-62
2023/11/18 07:47:44;;;;;;;37.72;12.18;;;3.00;99.90;;;;;;4949890;29;20114;-85
2023/11/18 07:50:12;;;;;;;43.53;12.55;;;3.00;99.90;;;;;;4947767;29;20054;-62
2023/11/18 07:52:40;;;;;;;34.95;12.63;;;3.10;99.90;;;;;;4949183;29;20061;-61
2023/11/18 07:55:13;;;;;;;41.80;13.18;;;3.10;99.90;;;;;;4949161;29;20047;-61
2023/11/18 07:57:40;;;;;;;39.22;12.00;;;3.20;99.90;;;;;;4948884;29;20491;-86
2023/11/18 08:00:10;;;;;;;36.83;11.02;;;3.20;99.90;;;;;;4948068;28;20055;-62
2023/11/18 08:02:37;;;;;;;39.85;12.55;;;3.20;99.90;;;;;;4947105;28;20425;-72
2023/11/18 08:05:07;;;;;;;41.60;13.48;;;3.30;99.90;;;;;;4949182;29;20118;-62
2023/11/18 08:07:35;;;;;;;31.17;12.27;;;3.30;99.90;;;;;;4947453;29;20043;-62
2023/11/18 08:10:05;;;;;;;39.13;11.27;;;3.30;99.90;;;;;;4947956;28;20069;-61
2023/11/18 08:12:32;;;;;;;21.13;8.85;;;3.30;99.90;;;;;;4946092;28;20039;-61
2023/11/18 08:15:00;;;;;;;37.70;11.50;;;3.40;99.90;;;;;;4943423;29;20046;-61
2023/11/18 08:17:26;;;;;;;37.10;12.32;;;3.40;99.90;;;;;;4947617;28;20138;-62
2023/11/18 08:19:53;;;;;;;31.13;10.05;;;3.40;99.90;;;;;;4946198;28;20051;-62
2023/11/18 08:22:22;;;;;;;31.17;11.15;;;3.40;99.90;;;;;;4948594;29;20047;-61
2023/11/18 08:24:50;;;;;;;46.22;13.35;;;3.40;99.90;;;;;;4947253;29;20066;-61
2023/11/18 08:27:17;;;;;;;34.00;12.98;;;3.40;99.90;;;;;;4947706;28;20060;-61
2023/11/18 08:29:43;;;;;;;43.10;13.93;;;3.50;99.90;;;;;;4948185;29;20494;-76
2023/11/18 08:32:10;;;;;;;39.00;12.45;;;3.50;99.90;;;;;;4947747;29;20051;-61
2023/11/18 08:34:37;;;;;;;33.10;12.60;;;3.40;99.90;;;;;;4948129;29;20039;-82
2023/11/18 08:37:07;;;;;;;32.47;11.95;;;3.40;99.90;;;;;;4947228;29;20106;-61
2023/11/18 08:39:33;;;;;;;33.65;13.30;;;3.50;99.90;;;;;;4948779;29;20573;-85
2023/11/18 08:42:00;;;;;;;39.40;11.43;;;3.50;99.90;;;;;;4948200;29;20097;-61
2023/11/18 08:44:27;;;;;;;39.78;13.50;;;3.50;99.90;;;;;;4947914;29;20445;-61
2023/11/18 08:46:53;;;;;;;33.20;11.70;;;3.40;99.90;;;;;;4948531;29;20047;-61
2023/11/18 08:49:22;;;;;;;25.65;11.60;;;3.50;99.90;;;;;;4947320;29;20055;-61
2023/11/18 08:51:55;;;;;;;32.63;12.82;;;3.60;99.90;;;;;;4948220;29;20056;-61
2023/11/18 08:54:24;;;;;;;37.22;13.55;;;3.50;99.90;;;;;;4946903;28;20143;-84
2023/11/18 08:56:54;;;;;;;31.63;12.48;;;3.60;99.90;;;;;;4948678;29;20521;-61
2023/11/18 08:59:27;;;;;;;37.22;13.10;;;3.60;99.90;;;;;;4947450;29;20097;-61
2023/11/18 09:01:59;;;;;;;32.00;13.52;;;3.60;99.90;;;;;;4947751;29;20054;-84
2023/11/18 09:04:25;;;;;;;42.75;13.85;;;3.60;99.90;;;;;;4940429;29;20051;-62
2023/11/18 09:06:54;;;;;;;36.33;12.15;;;3.60;99.90;;;;;;4947631;29;20062;-82
2023/11/18 09:09:27;;;;;;;30.63;11.55;;;3.60;99.90;;;;;;4951659;28;20039;-62
2023/11/18 09:11:58;;;;;;;41.25;14.23;;;3.70;99.90;;;;;;4966759;28;20046;-84
2023/11/18 09:14:25;;;;;;;33.50;12.27;;;3.70;99.90;;;;;;4952422;28;20493;-74
2023/11/18 09:16:58;;;;;;;32.53;12.93;;;3.70;99.90;;;;;;4936215;28;20126;-81
2023/11/18 09:19:25;;;;;;;40.40;15.27;;;3.70;99.90;;;;;;4951031;28;20366;-84
2023/11/18 09:21:54;;;;;;;36.28;14.65;;;3.70;99.90;;;;;;4964300;28;20047;-61
2023/11/18 09:24:23;;;;;;;39.03;14.23;;;3.80;99.90;;;;;;4945338;28;20051;-61
2023/11/18 09:26:50;;;;;;;32.75;14.05;;;3.70;99.90;;;;;;4945270;29;20054;-61
2023/11/18 09:29:21;;;;;;;33.10;13.52;;;3.80;99.90;;;;;;4945153;29;20402;-61
2023/11/18 09:31:48;;;;;;;43.92;15.07;;;3.80;99.90;;;;;;4946950;29;20051;-73
2023/11/18 09:34:16;;;;;;;32.33;13.18;;;3.90;99.90;;;;;;4947108;29;20051;-62
2023/11/18 09:36:44;;;;;;;30.98;13.02;;;3.80;99.90;;;;;;4946615;28;20043;-61
2023/11/18 09:39:28;;;;;;;35.92;13.38;;;3.80;99.90;;;;;;4949275;28;20047;-61
2023/11/18 09:41:56;;;;;;;39.70;14.93;;;3.90;99.90;;;;;;4942906;28;20043;-63
2023/11/18 09:44:26;;;;;;;36.47;12.65;;;3.90;99.90;;;;;;4946871;28;20054;-62
2023/11/18 09:47:04;;;;;;;27.40;12.82;;;3.90;99.90;;;;;;4950955;29;20464;-62
2023/11/18 09:49:38;;;;;;;21.85;9.95;;;4.00;99.90;;;;;;4948674;28;20393;-62
2023/11/18 09:52:06;;;;;;;35.08;14.35;;;3.90;99.90;;;;;;4940980;29;20111;-62
2023/11/18 09:55:19;;;;;;;30.23;12.25;;;3.90;99.90;;;;;;4948540;28;20521;-61
2023/11/18 09:57:57;;;;;;;28.58;11.95;;;4.00;99.90;;;;;;4897337;29;20066;-61
2023/11/18 10:00:26;;;;;;;30.15;13.27;;;4.00;99.90;;;;;;4949682;29;20043;-81
2023/11/18 10:02:56;;;;;;;47.95;16.55;;;3.90;99.90;;;;;;4949985;28;20051;-84
2023/11/18 10:05:26;;;;;;;45.33;16.42;;;4.00;99.90;;;;;;4949843;28;20043;-76
2023/11/18 10:07:53;;;;;;;38.10;15.17;;;4.00;99.90;;;;;;4949668;29;20055;-80
2023/11/18 10:10:20;;;;;;;43.10;15.75;;;4.10;99.90;;;;;;4951897;28;20414;-61
2023/11/18 10:13:21;;;;;;;37.58;14.93;;;4.10;99.90;;;;;;4958529;28;20110;-62
2023/11/18 10:15:35;;;;;;;27.38;12.77;;;4.20;99.90;;;;;;4948567;28;20051;-78
2023/11/18 10:18:15;;;;;;;41.50;17.00;;;4.20;99.90;;;;;;4938209;28;20383;-79
2023/11/18 10:20:51;;;;;;;35.38;14.75;;;4.20;99.90;;;;;;4964203;28;20085;-81
2023/11/18 10:23:20;;;;;;;33.38;14.60;;;4.30;99.90;;;;;;4938825;28;20078;-61
2023/11/18 10:25:58;;;;;;;31.52;13.63;;;4.30;99.90;;;;;;4943113;28;20402;-86
2023/11/18 10:28:28;;;;;;;33.65;15.05;;;4.30;99.90;;;;;;4951248;28;20098;-61
2023/11/18 10:31:03;;;;;;;34.15;12.98;;;4.40;99.90;;;;;;4962841;28;20054;-61
2023/11/18 10:33:38;;;;;;;30.40;13.77;;;4.40;99.90;;;;;;4956015;28;20046;-61
2023/11/18 10:36:12;;;;;;;40.33;16.75;;;4.40;99.90;;;;;;4957054;28;20043;-61
2023/11/18 10:38:47;;;;;;;26.15;10.75;;;4.50;99.90;;;;;;4952296;28;20125;-61
2023/11/18 10:41:13;;;;;;;30.88;13.75;;;4.50;99.90;;;;;;4949790;28;20505;-61
2023/11/18 10:43:41;;;;;;;33.53;14.20;;;4.50;99.90;;;;;;4948265;28;20054;-61
2023/11/18 10:46:13;;;;;;;28.33;13.13;;;4.50;99.90;;;;;;4949164;29;20043;-61
2023/11/18 10:48:50;;;;;;;36.20;16.08;;;4.50;99.90;;;;;;4947627;28;20669;-62
2023/11/18 10:51:26;;;;;;;22.70;11.05;;;4.50;99.90;;;;;;4949081;28;20054;-61
2023/11/18 10:53:56;;;;;;;28.52;11.40;;;4.50;99.90;;;;;;4944778;28;20498;-61
2023/11/18 10:56:29;;;;;;;27.48;13.07;;;4.40;99.90;;;;;;4957787;28;20074;-61
2023/11/18 10:58:59;;;;;;;24.02;12.25;;;4.50;99.90;;;;;;4942500;28;20051;-61
2023/11/18 11:01:29;;;;;;;;;;;4.50;99.90;;;;;;4943901;29;20075;-70
2023/11/18 11:03:56;;;;;;;25.00;10.98;;;4.40;99.90;;;;;;4948539;28;19930;-62
2023/11/18 11:06:30;;;;;;;26.02;12.23;;;4.50;99.90;;;;;;4950394;29;20045;-61
2023/11/18 11:09:00;;;;;;;24.48;11.52;;;4.40;99.90;;;;;;4950008;28;20051;-61
2023/11/18 11:11:40;;;;;;;23.50;9.77;;;4.50;99.90;;;;;;4968142;28;20039;-61
2023/11/18 11:14:08;;;;;;;22.02;9.15;;;4.50;99.90;;;;;;4940436;28;20504;-87
2023/11/18 11:16:45;;;;;;;20.05;9.57;;;4.50;99.90;;;;;;4947553;29;20055;-85
2023/11/18 11:19:33;;;;;;;28.15;12.20;;;4.50;99.90;;;;;;4947417;29;20051;-61
2023/11/18 11:22:07;;;;;;;15.18;8.82;;;4.50;99.90;;;;;;4944659;29;20047;-62
2023/11/18 11:24:59;;;;;;;17.77;9.30;;;4.50;99.90;;;;;;4947445;28;20122;-64
2023/11/18 11:27:38;;;;;;;20.77;9.88;;;4.50;99.90;;;;;;4948127;28;20110;-61
2023/11/18 11:30:45;;;;;;;20.48;9.90;;;4.60;99.90;;;;;;4937370;28;20162;-61
2023/11/18 11:33:42;;;;;;;22.65;11.15;;;4.60;99.90;;;;;;4947428;28;20051;-62
2023/11/18 11:36:16;;;;;;;21.98;9.82;;;4.60;99.90;;;;;;4948823;28;20059;-80
2023/11/18 11:38:46;;;;;;;20.38;9.73;;;4.60;99.90;;;;;;4948382;28;20122;-83
2023/11/18 11:41:22;;;;;;;19.45;8.65;;;4.60;99.90;;;;;;4948220;28;20065;-61
2023/11/18 11:43:49;;;;;;;16.98;9.15;;;4.60;99.90;;;;;;4947053;28;20130;-61
2023/11/18 11:46:22;;;;;;;19.85;10.32;;;4.70;99.90;;;;;;4948979;29;20118;-61
2023/11/18 11:48:55;;;;;;;21.77;9.18;;;4.70;99.90;;;;;;4948391;28;20130;-66
2023/11/18 11:51:29;;;;;;;18.98;9.88;;;4.70;99.90;;;;;;4940106;28;20039;-63
2023/11/18 11:54:20;;;;;;;18.08;9.07;;;4.70;99.90;;;;;;4954210;28;20510;-66
2023/11/18 11:56:57;;;;;;;19.83;10.48;;;4.70;99.90;;;;;;4947649;28;20560;-79
2023/11/18 11:59:46;;;;;;;25.50;10.32;;;4.70;99.90;;;;;;4948957;29;20482;-61
2023/11/18 12:02:16;;;;;;;19.30;9.30;;;4.70;99.90;;;;;;4946333;28;20081;-62
2023/11/18 12:04:46;;;;;;;19.65;8.88;;;4.70;99.90;;;;;;4948326;29;20043;-62
2023/11/18 12:07:15;;;;;;;;;;;4.70;99.90;;;;;;4946160;28;20039;-61
2023/11/18 12:09:43;;;;;;;22.45;9.82;;;4.80;99.90;;;;;;4954336;28;20401;-61
2023/11/18 12:12:20;;;;;;;16.67;8.02;;;4.70;99.90;;;;;;4949944;28;20584;-61
2023/11/18 12:15:20;;;;;;;17.10;9.13;;;4.70;99.90;;;;;;4943446;28;20145;-82
2023/11/18 12:17:52;;;;;;;13.93;8.05;;;4.80;99.90;;;;;;4952584;28;20077;-61
2023/11/18 12:20:42;;;;;;;11.65;6.85;;;4.80;99.90;;;;;;4951680;28;20130;-61
2023/11/18 12:23:14;;;;;;;16.92;9.80;;;4.80;99.90;;;;;;4935115;28;20035;-61
2023/11/18 12:25:41;;;;;;;18.38;9.82;;;4.90;99.90;;;;;;4950398;28;20501;-61
2023/11/18 12:28:11;;;;;;;20.10;8.73;;;4.90;99.90;;;;;;4958948;28;20042;-61
2023/11/18 12:30:41;;;;;;;14.68;8.07;;;4.90;99.90;;;;;;4958901;28;20481;-61
2023/11/18 12:33:18;;;;;;;16.63;8.55;;;4.90;99.90;;;;;;4953814;28;20055;-61
2023/11/18 12:35:51;;;;;;;15.05;8.05;;;4.90;99.90;;;;;;4956164;28;20409;-61
2023/11/18 12:38:35;;;;;;;15.25;7.80;;;4.90;99.90;;;;;;4949757;28;20043;-61
2023/11/18 12:41:05;;;;;;;13.07;7.00;;;4.90;99.90;;;;;;4951817;28;20572;-61
2023/11/18 12:43:52;;;;;;;15.85;8.93;;;4.90;99.90;;;;;;4963605;28;20140;-61
2023/11/18 12:46:42;;;;;;;7.85;5.22;;;4.90;99.90;;;;;;4967813;28;20054;-73
2023/11/18 12:49:34;;;;;;;16.67;8.75;;;4.90;99.90;;;;;;4953554;28;20055;-62
2023/11/18 12:52:08;;;;;;;12.80;7.85;;;4.90;99.90;;;;;;4961292;28;20039;-77
2023/11/18 12:54:38;;;;;;;13.95;6.57;;;5.00;99.90;;;;;;4958822;28;20066;-83
2023/11/18 12:57:07;;;;;;;14.57;7.88;;;5.00;99.90;;;;;;4967321;28;20049;-61
2023/11/18 12:59:40;;;;;;;14.88;7.25;;;5.00;99.90;;;;;;4953248;28;20079;-62
2023/11/18 13:02:18;;;;;;;12.75;5.07;;;5.00;99.90;;;;;;4953626;28;20047;-64
2023/11/18 13:04:47;;;;;;;15.73;7.97;;;4.90;99.90;;;;;;4954769;28;20051;-63